Time;durP1;ratioP1;P1;durP2;ratioP2;P2;SDS_P1;SDS_P2;PMS_P1;PMS_P2;Temp;Humidity;BMP_temperature;BMP_pressure;BME280_temperature;BME280_humidity;BME280_pressure;Samples;Min_cycle;Max_cycle;Signal;HPM_P1;HPM_P2
2022/08/01 00:00:07;;;;;;;4.05;2.42;;;18.10;99.90;;;;;;5076368;28;21009;-54
2022/08/01 00:02:38;;;;;;;3.25;2.80;;;18.10;99.90;;;;;;5075776;28;20084;-53
2022/08/01 00:05:07;;;;;;;2.85;2.45;;;18.10;99.90;;;;;;5075941;28;20139;-52
2022/08/01 00:07:34;;;;;;;3.47;2.45;;;18.10;99.90;;;;;;5074228;28;20047;-53
2022/08/01 00:10:04;;;;;;;6.03;2.80;;;18.10;99.90;;;;;;5067460;28;21130;-54
2022/08/01 00:12:31;;;;;;;3.15;2.42;;;18.10;99.90;;;;;;5068426;28;20044;-53
2022/08/01 00:14:58;;;;;;;5.13;2.10;;;18.10;99.90;;;;;;5057530;28;20827;-54
2022/08/01 00:17:24;;;;;;;2.75;2.03;;;18.00;99.90;;;;;;5061933;28;20040;-54
2022/08/01 00:19:51;;;;;;;2.72;2.28;;;18.00;99.90;;;;;;5075067;28;20055;-52
2022/08/01 00:22:18;;;;;;;;;;;18.00;99.90;;;;;;5077048;28;20606;-50
2022/08/01 00:24:45;;;;;;;2.85;2.22;;;18.00;99.90;;;;;;5056700;28;19950;-55
2022/08/01 00:27:11;;;;;;;3.55;2.28;;;18.00;99.90;;;;;;5075701;28;20068;-53
2022/08/01 00:29:38;;;;;;;;;;;18.00;99.90;;;;;;5057088;28;20040;-54
2022/08/01 00:32:25;;;;;;;6.60;2.30;;;18.00;99.90;;;;;;5060849;28;20480;-54
2022/08/01 00:34:51;;;;;;;;;;;17.90;99.90;;;;;;5076060;28;20063;-54
2022/08/01 00:37:18;;;;;;;4.13;2.17;;;17.90;99.90;;;;;;5075655;28;19924;-53
2022/08/01 00:39:45;;;;;;;;;;;17.80;99.90;;;;;;5076204;28;20093;-56
2022/08/01 00:42:12;;;;;;;2.72;2.53;;;17.80;99.90;;;;;;5075412;28;19924;-52
2022/08/01 00:44:40;;;;;;;6.32;2.35;;;17.80;99.90;;;;;;5072022;28;20052;-52
2022/08/01 00:47:07;;;;;;;3.50;2.53;;;17.80;99.90;;;;;;5075033;28;20087;-54
2022/08/01 00:49:34;;;;;;;4.20;2.17;;;17.80;99.90;;;;;;5075478;28;20454;-53
2022/08/01 00:52:04;;;;;;;5.10;2.53;;;17.80;99.90;;;;;;5074772;28;20129;-53
2022/08/01 00:54:32;;;;;;;5.20;2.40;;;17.80;99.90;;;;;;5074110;28;20051;-54
2022/08/01 00:56:59;;;;;;;4.65;2.80;;;17.80;99.90;;;;;;5075022;28;20120;-51
2022/08/01 00:59:27;;;;;;;3.55;2.63;;;17.80;99.90;;;;;;5075120;28;20048;-55
2022/08/01 01:01:54;;;;;;;3.58;2.50;;;17.80;99.90;;;;;;5075376;28;20090;-55
2022/08/01 01:04:22;;;;;;;2.33;2.03;;;17.80;99.90;;;;;;5074970;28;20746;-52
2022/08/01 01:07:01;;;;;;;4.57;2.47;;;17.80;99.90;;;;;;5074972;28;20044;-55
2022/08/01 01:09:42;;;;;;;3.33;2.92;;;17.80;99.90;;;;;;5070502;28;20119;-52
2022/08/01 01:12:19;;;;;;;4.30;2.33;;;17.80;99.90;;;;;;5064801;28;20500;-52
2022/08/01 01:15:14;;;;;;;3.05;2.65;;;17.80;99.90;;;;;;5057755;28;20044;-54
2022/08/01 01:18:02;;;;;;;2.80;2.05;;;17.70;99.90;;;;;;5055699;28;20697;-56
2022/08/01 01:20:37;;;;;;;3.03;2.30;;;17.70;99.90;;;;;;5071591;28;20056;-56
2022/08/01 01:23:23;;;;;;;2.65;2.20;;;17.80;99.90;;;;;;5074625;28;20044;-54
2022/08/01 01:26:10;;;;;;;7.82;2.90;;;17.80;99.90;;;;;;5074534;28;20052;-53
2022/08/01 01:29:00;;;;;;;7.33;2.80;;;17.70;99.90;;;;;;5042529;28;20097;-53
2022/08/01 01:31:28;;;;;;;8.45;2.88;;;17.80;99.90;;;;;;5074228;28;20532;-55
2022/08/01 01:33:57;;;;;;;2.40;2.17;;;17.70;99.90;;;;;;5074510;28;20040;-56
2022/08/01 01:36:26;;;;;;;3.88;2.75;;;17.70;99.90;;;;;;5074183;28;20109;-54
2022/08/01 01:38:55;;;;;;;3.05;2.70;;;17.70;99.90;;;;;;5074696;28;20040;-53
2022/08/01 01:41:23;;;;;;;2.88;2.35;;;17.80;99.90;;;;;;5074338;28;20757;-54
2022/08/01 01:43:51;;;;;;;7.10;2.42;;;17.80;99.90;;;;;;5057591;28;20041;-56
2022/08/01 01:46:23;;;;;;;5.28;2.28;;;17.80;99.90;;;;;;5054821;28;20098;-52
2022/08/01 01:48:51;;;;;;;3.10;2.45;;;17.80;99.90;;;;;;5054000;28;20053;-54
2022/08/01 01:51:21;;;;;;;2.72;2.25;;;17.70;99.90;;;;;;5054089;28;20036;-55
2022/08/01 01:53:51;;;;;;;4.50;2.47;;;17.80;99.90;;;;;;5052808;28;20071;-54
2022/08/01 01:56:20;;;;;;;8.20;2.88;;;17.70;99.90;;;;;;5054409;28;20044;-56
2022/08/01 01:58:53;;;;;;;2.65;2.45;;;17.70;99.90;;;;;;5053887;28;20665;-53
2022/08/01 02:01:23;;;;;;;2.60;2.40;;;17.70;99.90;;;;;;5054313;28;20040;-53
2022/08/01 02:04:10;;;;;;;5.78;2.63;;;17.60;99.90;;;;;;5053479;28;20090;-54
2022/08/01 02:06:39;;;;;;;3.05;2.22;;;17.60;99.90;;;;;;5054185;28;20044;-54
2022/08/01 02:09:08;;;;;;;5.45;2.60;;;17.60;99.90;;;;;;5055215;28;20053;-55
2022/08/01 02:11:38;;;;;;;4.43;2.97;;;17.60;99.90;;;;;;5068151;28;20501;-54
2022/08/01 02:14:27;;;;;;;3.90;2.50;;;17.60;99.90;;;;;;5054307;28;20131;-52
2022/08/01 02:16:56;;;;;;;6.78;2.33;;;17.60;99.90;;;;;;5055287;28;20143;-52
2022/08/01 02:19:23;;;;;;;3.22;2.70;;;17.50;99.90;;;;;;5064500;28;20109;-58
2022/08/01 02:21:52;;;;;;;3.63;2.83;;;17.50;99.90;;;;;;5076399;28;20117;-53
2022/08/01 02:24:37;;;;;;;3.33;2.60;;;17.50;99.90;;;;;;5078034;28;20048;-52
2022/08/01 02:27:12;;;;;;;4.25;2.58;;;17.50;99.90;;;;;;5077945;28;20040;-56
2022/08/01 02:29:49;;;;;;;3.33;2.47;;;17.40;99.90;;;;;;5059564;28;20528;-54
2022/08/01 02:32:25;;;;;;;3.95;2.80;;;17.40;99.90;;;;;;5077541;28;20043;-53
2022/08/01 02:34:55;;;;;;;2.88;2.58;;;17.40;99.90;;;;;;5059891;28;20232;-53
2022/08/01 02:37:25;;;;;;;2.88;2.22;;;17.30;99.90;;;;;;5077869;28;20036;-54
2022/08/01 02:39:54;;;;;;;2.60;2.40;;;17.40;99.90;;;;;;5077520;28;20040;-50
2022/08/01 02:42:25;;;;;;;4.72;2.63;;;17.40;99.90;;;;;;5077486;28;20807;-50
2022/08/01 02:44:53;;;;;;;6.07;2.70;;;17.30;99.90;;;;;;5075036;28;20066;-55
2022/08/01 02:47:22;;;;;;;3.75;2.30;;;17.30;99.90;;;;;;5077697;28;20044;-56
2022/08/01 02:49:52;;;;;;;3.15;2.30;;;17.30;99.90;;;;;;5077375;28;20043;-56
2022/08/01 02:52:22;;;;;;;3.13;2.83;;;17.30;99.90;;;;;;5077763;28;20160;-50
2022/08/01 02:54:54;;;;;;;2.90;2.60;;;17.20;99.90;;;;;;5063647;28;20048;-52
2022/08/01 02:57:22;;;;;;;4.43;2.40;;;17.20;99.90;;;;;;5057627;28;20101;-55
2022/08/01 03:00:00;;;;;;;2.38;2.20;;;17.20;99.90;;;;;;5057346;28;20499;-55
2022/08/01 03:02:28;;;;;;;3.50;2.80;;;17.20;99.90;;;;;;5076210;28;20052;-52
2022/08/01 03:04:57;;;;;;;5.32;2.70;;;17.20;99.90;;;;;;5076854;28;20063;-52
2022/08/01 03:07:25;;;;;;;3.67;3.00;;;17.20;99.90;;;;;;5076493;28;20071;-52
2022/08/01 03:10:03;;;;;;;3.53;2.65;;;17.20;99.90;;;;;;5077263;28;20051;-56
2022/08/01 03:12:32;;;;;;;3.83;2.88;;;17.10;99.90;;;;;;5063311;28;20048;-55
2022/08/01 03:15:01;;;;;;;5.32;2.67;;;17.10;99.90;;;;;;5056930;28;20492;-53
2022/08/01 03:17:30;;;;;;;5.30;3.05;;;17.10;99.90;;;;;;5056709;28;20080;-54
2022/08/01 03:19:58;;;;;;;3.05;2.83;;;17.00;99.90;;;;;;5059502;28;20040;-55
2022/08/01 03:22:27;;;;;;;3.33;2.88;;;17.00;99.90;;;;;;5074936;28;20050;-52
2022/08/01 03:24:58;;;;;;;4.22;3.20;;;17.00;99.90;;;;;;5076936;28;20529;-54
2022/08/01 03:27:25;;;;;;;3.55;2.92;;;17.10;99.90;;;;;;5076495;28;20139;-53
2022/08/01 03:29:56;;;;;;;6.22;3.08;;;17.00;99.90;;;;;;5057535;28;20094;-51
2022/08/01 03:32:24;;;;;;;4.05;2.95;;;17.10;99.90;;;;;;5077520;28;20044;-54
2022/08/01 03:34:51;;;;;;;9.52;3.17;;;17.10;99.90;;;;;;5076060;28;20040;-55
2022/08/01 03:37:32;;;;;;;4.43;2.70;;;17.10;99.90;;;;;;5077031;28;20055;-53
2022/08/01 03:40:09;;;;;;;5.20;3.22;;;17.10;99.90;;;;;;5076750;28;20048;-56
2022/08/01 03:42:44;;;;;;;13.30;3.83;;;17.10;99.90;;;;;;5069883;28;20672;-54
2022/08/01 03:45:22;;;;;;;4.18;3.17;;;17.10;99.90;;;;;;5075549;28;20366;-52
2022/08/01 03:47:55;;;;;;;3.45;2.88;;;17.10;99.90;;;;;;5076836;28;20039;-52
2022/08/01 03:50:24;;;;;;;5.70;2.72;;;17.10;99.90;;;;;;5057823;28;20424;-56
2022/08/01 03:52:53;;;;;;;4.13;2.80;;;17.10;99.90;;;;;;5076625;28;20040;-53
2022/08/01 03:55:21;;;;;;;3.45;2.65;;;17.10;99.90;;;;;;5057545;28;20547;-54
2022/08/01 03:57:50;;;;;;;3.00;2.80;;;17.10;99.90;;;;;;5076155;28;20619;-53
2022/08/01 04:00:18;;;;;;;5.70;3.22;;;17.10;99.90;;;;;;5074893;28;20067;-56
2022/08/01 04:02:49;;;;;;;3.22;2.80;;;17.00;99.90;;;;;;5057959;28;20564;-54
2022/08/01 04:05:16;;;;;;;3.20;2.90;;;17.00;99.90;;;;;;5076144;28;20052;-53
2022/08/01 04:07:50;;;;;;;3.28;2.70;;;16.90;99.90;;;;;;5075921;28;20032;-56
2022/08/01 04:10:17;;;;;;;3.25;2.58;;;16.90;99.90;;;;;;5063864;28;20063;-54
2022/08/01 04:12:44;;;;;;;3.10;2.50;;;16.90;99.90;;;;;;5069689;28;20040;-55
2022/08/01 04:15:10;;;;;;;8.57;2.55;;;16.80;99.90;;;;;;5056334;28;20056;-55
2022/08/01 04:17:37;;;;;;;2.72;2.53;;;16.80;99.90;;;;;;5055706;28;20044;-54
2022/08/01 04:20:05;;;;;;;3.58;2.83;;;16.80;99.90;;;;;;5054265;28;20098;-52
2022/08/01 04:22:32;;;;;;;3.35;3.03;;;16.80;99.90;;;;;;5070558;28;20035;-56
2022/08/01 04:25:10;;;;;;;6.65;3.25;;;16.80;99.90;;;;;;5054961;28;20047;-56
2022/08/01 04:27:40;;;;;;;5.88;2.67;;;16.80;99.90;;;;;;5055779;28;20135;-55
2022/08/01 04:30:25;;;;;;;4.18;2.85;;;16.80;99.90;;;;;;5055104;28;20696;-55
2022/08/01 04:32:55;;;;;;;5.95;3.20;;;16.80;99.90;;;;;;5055672;28;20032;-53
2022/08/01 04:35:24;;;;;;;3.25;2.95;;;16.80;99.90;;;;;;5054595;28;20045;-53
2022/08/01 04:38:16;;;;;;;5.80;2.65;;;16.80;99.90;;;;;;5055342;28;20044;-54
2022/08/01 04:40:45;;;;;;;3.70;2.53;;;16.90;99.90;;;;;;5054458;28;20540;-55
2022/08/01 04:43:12;;;;;;;2.70;2.50;;;16.90;99.90;;;;;;5064403;28;20101;-57
2022/08/01 04:45:43;;;;;;;3.53;2.85;;;16.90;99.90;;;;;;5057066;28;20097;-53
2022/08/01 04:48:13;;;;;;;2.83;2.63;;;17.00;99.90;;;;;;5075221;28;20059;-56
2022/08/01 04:50:41;;;;;;;3.25;2.95;;;17.00;99.90;;;;;;5075263;28;20085;-56
2022/08/01 04:53:17;;;;;;;3.75;2.88;;;17.10;99.90;;;;;;5074992;28;20047;-55
2022/08/01 04:55:45;;;;;;;4.22;2.67;;;17.10;99.90;;;;;;5074249;28;20123;-56
2022/08/01 04:58:14;;;;;;;3.42;2.60;;;17.10;99.90;;;;;;5074604;28;20054;-54
2022/08/01 05:00:45;;;;;;;2.70;2.38;;;17.10;99.90;;;;;;5074488;28;20226;-59
2022/08/01 05:03:11;;;;;;;3.60;3.03;;;17.20;99.90;;;;;;5074337;28;20127;-55
2022/08/01 05:05:38;;;;;;;;;;;17.30;99.90;;;;;;5074962;28;20519;-54
2022/08/01 05:08:05;;;;;;;4.60;3.22;;;17.30;99.90;;;;;;5075482;28;19931;-55
2022/08/01 05:10:33;;;;;;;3.45;2.72;;;17.40;99.90;;;;;;5061272;28;20105;-56
2022/08/01 05:13:00;;;;;;;3.17;2.78;;;17.50;99.90;;;;;;5069593;28;20040;-55
2022/08/01 05:15:27;;;;;;;2.78;2.55;;;17.50;99.90;;;;;;5054724;28;20055;-51
2022/08/01 05:17:54;;;;;;;6.78;2.63;;;17.70;99.90;;;;;;5055226;28;20055;-52
2022/08/01 05:20:21;;;;;;;3.10;2.75;;;17.70;99.90;;;;;;5054473;28;20883;-56
2022/08/01 05:22:48;;;;;;;2.70;2.50;;;17.80;99.90;;;;;;5062206;28;20496;-53
2022/08/01 05:25:15;;;;;;;3.40;2.67;;;17.80;99.90;;;;;;5055509;28;20055;-56
2022/08/01 05:27:46;;;;;;;3.50;2.88;;;17.90;99.90;;;;;;5074078;28;20101;-53
2022/08/01 05:30:14;;;;;;;3.85;2.80;;;17.90;99.90;;;;;;5074512;28;20036;-55
2022/08/01 05:32:42;;;;;;;3.35;2.33;;;18.00;99.90;;;;;;5073674;28;20043;-53
2022/08/01 05:35:09;;;;;;;4.38;2.65;;;18.00;99.90;;;;;;5074281;28;20112;-54
2022/08/01 05:37:36;;;;;;;5.00;2.90;;;18.00;99.90;;;;;;5056074;28;20058;-55
2022/08/01 05:40:03;;;;;;;4.43;2.85;;;18.10;99.90;;;;;;5075068;28;20052;-55
2022/08/01 05:42:30;;;;;;;2.78;2.55;;;18.10;99.90;;;;;;5069030;28;20563;-56
2022/08/01 05:44:57;;;;;;;2.85;2.65;;;18.20;99.90;;;;;;5053903;28;20051;-54
2022/08/01 05:47:24;;;;;;;3.72;3.00;;;18.20;99.90;;;;;;5053836;28;20163;-56
2022/08/01 05:49:51;;;;;;;2.90;2.65;;;18.30;99.90;;;;;;5053659;28;20052;-54
2022/08/01 05:52:18;;;;;;;2.42;2.22;;;18.30;99.90;;;;;;5057197;28;20048;-54
2022/08/01 05:54:44;;;;;;;4.30;2.55;;;18.40;99.90;;;;;;5058122;28;20110;-55
2022/08/01 05:57:11;;;;;;;3.65;2.95;;;18.40;99.90;;;;;;5077738;28;20039;-55
2022/08/01 05:59:40;;;;;;;3.15;2.53;;;18.50;99.90;;;;;;5078091;28;20047;-55
2022/08/01 06:02:07;;;;;;;6.45;2.60;;;18.60;99.90;;;;;;5079059;28;20071;-55
2022/08/01 06:04:34;;;;;;;2.30;2.10;;;18.70;99.90;;;;;;5078231;28;20072;-55
2022/08/01 06:07:01;;;;;;;;;;;18.80;99.90;;;;;;5078843;28;20694;-54
2022/08/01 06:09:27;;;;;;;4.57;2.33;;;18.90;99.90;;;;;;5075180;28;20474;-53
2022/08/01 06:11:54;;;;;;;3.13;2.67;;;18.90;99.90;;;;;;5065707;28;20082;-55
2022/08/01 06:14:21;;;;;;;;;;;19.00;99.90;;;;;;5066089;28;20036;-55
2022/08/01 06:16:48;;;;;;;3.40;2.30;;;19.20;99.90;;;;;;5057785;28;19928;-53
2022/08/01 06:19:14;;;;;;;2.90;2.65;;;19.30;99.90;;;;;;5058143;28;20591;-53
2022/08/01 06:21:41;;;;;;;4.15;2.22;;;19.30;99.90;;;;;;5057626;28;20055;-49
2022/08/01 06:24:08;;;;;;;4.68;3.50;;;19.40;99.90;;;;;;5068831;28;20048;-48
2022/08/01 06:26:36;;;;;;;6.82;3.13;;;19.50;99.90;;;;;;5077368;28;20469;-51
2022/08/01 06:29:03;;;;;;;5.75;2.20;;;19.60;99.90;;;;;;5078328;28;20058;-49
2022/08/01 06:31:31;;;;;;;5.47;2.90;;;19.70;99.90;;;;;;5077356;28;20074;-51
2022/08/01 06:33:59;;;;;;;3.22;2.60;;;19.80;99.90;;;;;;5059123;28;20048;-49
2022/08/01 06:36:26;;;;;;;3.97;2.78;;;19.90;99.90;;;;;;5077813;28;20488;-49
2022/08/01 06:38:53;;;;;;;2.75;2.42;;;20.00;99.90;;;;;;5077359;28;20070;-51
2022/08/01 06:41:20;;;;;;;2.60;2.40;;;20.10;99.90;;;;;;5077446;28;20059;-49
2022/08/01 06:43:47;;;;;;;7.07;3.08;;;20.30;99.90;;;;;;5060705;28;20052;-49
2022/08/01 06:46:14;;;;;;;5.30;2.42;;;20.40;99.90;;;;;;5057373;28;20052;-50
2022/08/01 06:48:42;;;;;;;2.85;2.47;;;20.50;99.90;;;;;;5057605;28;20097;-49
2022/08/01 06:51:09;;;;;;;3.78;2.60;;;20.60;99.90;;;;;;5056293;28;20618;-50
2022/08/01 06:53:37;;;;;;;3.92;2.95;;;20.70;99.90;;;;;;5057669;28;20047;-49
2022/08/01 06:56:06;;;;;;;3.13;2.78;;;20.80;99.90;;;;;;5043916;28;20081;-52
2022/08/01 06:58:34;;;;;;;5.38;2.95;;;20.90;99.90;;;;;;5077557;28;20490;-52
2022/08/01 07:01:08;;;;;;;10.15;2.83;;;21.00;99.90;;;;;;5076947;28;20055;-48
2022/08/01 07:03:36;;;;;;;4.72;2.50;;;21.00;99.90;;;;;;5076895;28;20547;-50
2022/08/01 07:06:24;;;;;;;3.30;2.38;;;21.10;99.90;;;;;;5059196;28;20055;-48
2022/08/01 07:08:52;;;;;;;5.85;2.75;;;21.20;99.90;;;;;;5077117;28;20056;-52
2022/08/01 07:11:21;;;;;;;5.32;2.80;;;21.20;99.90;;;;;;5058505;28;20054;-48
2022/08/01 07:13:48;;;;;;;3.75;2.53;;;21.30;99.90;;;;;;5067545;28;20136;-49
2022/08/01 07:16:16;;;;;;;2.63;2.08;;;21.30;99.90;;;;;;5056930;28;20045;-48
2022/08/01 07:18:43;;;;;;;3.72;2.67;;;21.40;99.90;;;;;;5054258;28;20127;-49
2022/08/01 07:21:11;;;;;;;6.50;2.60;;;21.50;99.90;;;;;;5056885;28;20048;-47
2022/08/01 07:23:57;;;;;;;;;;;21.50;99.90;;;;;;5064254;28;20036;-49
2022/08/01 07:26:27;;;;;;;5.53;2.45;;;21.70;99.90;;;;;;5075873;28;19920;-61
2022/08/01 07:28:54;;;;;;;4.47;2.88;;;21.70;99.90;;;;;;5077295;28;20466;-48
2022/08/01 07:31:21;;;;;;;4.00;2.72;;;21.90;99.90;;;;;;5058384;28;20047;-64
2022/08/01 07:33:47;;;;;;;2.95;2.65;;;21.90;99.90;;;;;;5059159;28;20098;-64
2022/08/01 07:36:18;;;;;;;5.70;3.10;;;22.00;99.90;;;;;;5076615;28;20056;-64
2022/08/01 07:38:46;;;;;;;8.88;2.90;;;22.10;99.90;;;;;;5058339;28;20508;-64
2022/08/01 07:41:13;;;;;;;3.78;3.22;;;22.10;99.90;;;;;;5076233;28;20792;-64
2022/08/01 07:43:40;;;;;;;4.78;3.08;;;22.20;99.90;;;;;;5061617;28;20129;-62
2022/08/01 07:46:18;;;;;;;4.18;2.90;;;22.30;99.90;;;;;;5056391;28;20056;-61
2022/08/01 07:48:45;;;;;;;4.07;3.08;;;22.40;99.90;;;;;;5056724;28;20123;-61
2022/08/01 07:51:12;;;;;;;3.92;3.17;;;22.50;99.90;;;;;;5056170;28;20784;-62
2022/08/01 07:53:39;;;;;;;3.55;2.80;;;22.70;99.90;;;;;;5055961;28;20071;-62
2022/08/01 07:56:06;;;;;;;3.80;2.80;;;22.90;99.90;;;;;;5048717;28;20040;-63
2022/08/01 07:58:33;;;;;;;9.10;3.63;;;23.00;99.90;;;;;;5055173;28;20400;-64
2022/08/01 08:01:00;;;;;;;11.68;3.08;;;23.10;99.90;;;;;;5038134;28;20052;-62
2022/08/01 08:03:27;;;;;;;4.45;3.10;;;23.20;98.40;;;;;;5055623;28;20125;-66
2022/08/01 08:05:54;;;;;;;5.50;2.95;;;23.30;97.60;;;;;;5055400;28;20618;-67
2022/08/01 08:08:26;;;;;;;5.53;2.60;;;23.40;97.20;;;;;;5055257;28;20122;-64
2022/08/01 08:10:52;;;;;;;3.72;2.83;;;23.50;96.30;;;;;;5070930;28;20033;-63
2022/08/01 08:13:19;;;;;;;4.95;2.75;;;24.00;95.90;;;;;;5059827;28;20040;-65
2022/08/01 08:15:47;;;;;;;5.68;2.60;;;24.40;94.00;;;;;;5055736;28;20044;-66
2022/08/01 08:18:15;;;;;;;3.47;2.85;;;25.00;89.50;;;;;;5055976;28;20044;-66
2022/08/01 08:20:42;;;;;;;3.88;2.80;;;25.40;86.40;;;;;;5037793;28;20078;-60
2022/08/01 08:26:09;;;;;;;3.15;2.83;;;26.20;76.60;;;;;;5065677;28;20059;-60
2022/08/01 08:28:36;;;;;;;9.85;2.55;;;26.50;71.00;;;;;;5057462;28;20036;-61
2022/08/01 08:31:03;;;;;;;4.85;2.40;;;26.80;68.00;;;;;;5074669;28;20047;-63
2022/08/01 08:33:30;;;;;;;3.72;2.67;;;26.90;65.50;;;;;;5076015;28;20047;-67
2022/08/01 08:35:57;;;;;;;2.75;2.25;;;27.00;63.10;;;;;;5075378;28;20043;-60
2022/08/01 08:38:26;;;;;;;14.48;2.40;;;27.10;58.80;;;;;;5057407;28;20726;-63
2022/08/01 08:40:57;;;;;;;5.63;2.20;;;27.10;58.40;;;;;;5075184;28;20122;-63
2022/08/01 08:43:25;;;;;;;3.42;2.85;;;27.20;58.10;;;;;;5054899;28;20048;-63
2022/08/01 08:45:53;;;;;;;3.28;2.60;;;27.20;58.00;;;;;;5057270;28;20058;-63
2022/08/01 08:48:26;;;;;;;4.10;2.40;;;27.20;60.00;;;;;;5074777;28;20051;-63
2022/08/01 08:50:54;;;;;;;4.57;2.78;;;27.40;58.60;;;;;;5075129;28;20047;-63
2022/08/01 08:53:21;;;;;;;2.55;2.35;;;27.50;57.20;;;;;;5056950;28;20064;-63
2022/08/01 08:55:49;;;;;;;2.58;2.30;;;27.50;56.10;;;;;;5075653;28;20066;-63
2022/08/01 08:58:24;;;;;;;6.68;2.90;;;27.30;56.50;;;;;;5056777;28;20051;-61
2022/08/01 09:00:58;;;;;;;2.88;2.45;;;27.40;56.70;;;;;;5054466;28;20044;-62
2022/08/01 09:03:25;;;;;;;2.88;2.55;;;27.40;56.00;;;;;;5054088;28;20147;-59
2022/08/01 09:05:52;;;;;;;4.28;3.45;;;27.30;55.60;;;;;;5040805;28;20040;-59
2022/08/01 09:08:19;;;;;;;2.70;2.22;;;27.50;57.10;;;;;;5075016;28;20305;-59
2022/08/01 09:10:47;;;;;;;7.15;3.08;;;27.70;55.80;;;;;;5057987;28;20052;-61
2022/08/01 09:13:14;;;;;;;5.93;2.45;;;27.80;54.30;;;;;;5051992;28;20715;-60
2022/08/01 09:15:48;;;;;;;3.45;2.30;;;27.90;53.90;;;;;;5053054;28;20056;-59
2022/08/01 09:18:28;;;;;;;3.60;2.30;;;28.10;54.50;;;;;;5054621;28;20048;-60
2022/08/01 09:21:14;;;;;;;2.75;2.05;;;28.20;54.20;;;;;;5053681;28;20076;-63
2022/08/01 09:23:52;;;;;;;6.15;2.50;;;28.40;55.20;;;;;;5054118;28;20551;-64
2022/08/01 09:26:35;;;;;;;6.88;2.47;;;28.60;53.60;;;;;;5040270;28;20717;-67
2022/08/01 09:29:05;;;;;;;3.20;2.40;;;28.80;52.80;;;;;;5073914;28;20040;-67
2022/08/01 09:31:43;;;;;;;2.97;2.42;;;28.90;53.00;;;;;;5074567;28;20044;-65
2022/08/01 09:34:23;;;;;;;3.33;2.03;;;29.00;51.60;;;;;;5074764;28;20058;-65
2022/08/01 09:37:00;;;;;;;2.47;2.17;;;29.10;52.10;;;;;;5074481;28;20055;-67
2022/08/01 09:39:37;;;;;;;2.83;2.53;;;29.10;50.70;;;;;;5074807;28;20044;-65
2022/08/01 09:42:25;;;;;;;2.40;2.20;;;29.10;50.50;;;;;;5074363;28;20036;-65
2022/08/01 09:44:55;;;;;;;2.55;2.15;;;29.20;51.00;;;;;;5071228;28;20048;-66
2022/08/01 09:47:39;;;;;;;5.72;2.72;;;29.40;53.50;;;;;;5072999;28;20572;-65
2022/08/01 09:50:07;;;;;;;4.75;2.20;;;29.60;55.70;;;;;;5074828;28;20139;-67
2022/08/01 09:52:37;;;;;;;4.68;2.50;;;29.80;53.20;;;;;;5072738;28;20549;-66
2022/08/01 09:55:07;;;;;;;3.67;2.22;;;30.10;53.50;;;;;;5073443;28;20381;-66
2022/08/01 09:57:34;;;;;;;2.17;1.98;;;30.30;49.50;;;;;;5055649;28;20626;-66
2022/08/01 10:00:04;;;;;;;2.20;2.00;;;30.40;48.70;;;;;;5072618;28;20044;-65
2022/08/01 10:02:40;;;;;;;2.65;1.70;;;30.50;49.10;;;;;;5074583;28;20052;-68
2022/08/01 10:05:09;;;;;;;2.20;2.00;;;30.50;47.60;;;;;;5074227;28;20048;-66
2022/08/01 10:07:56;;;;;;;2.30;2.10;;;30.50;47.90;;;;;;5074107;28;20539;-64
2022/08/01 10:10:25;;;;;;;1.73;1.63;;;30.60;49.20;;;;;;5073541;28;20060;-67
2022/08/01 10:12:58;;;;;;;2.10;1.75;;;30.70;47.30;;;;;;5056626;28;20041;-67
2022/08/01 10:15:26;;;;;;;3.05;2.08;;;30.90;47.90;;;;;;5036171;28;20040;-65
2022/08/01 10:18:06;;;;;;;3.53;1.67;;;31.10;47.20;;;;;;5053931;28;20052;-65
2022/08/01 10:20:43;;;;;;;2.45;1.92;;;31.30;47.50;;;;;;5053912;28;20044;-67
2022/08/01 10:23:10;;;;;;;2.20;2.00;;;31.40;46.90;;;;;;5052353;28;20048;-66
2022/08/01 10:25:43;;;;;;;3.60;2.08;;;31.40;46.80;;;;;;5036525;28;20729;-66
2022/08/01 10:28:18;;;;;;;6.82;3.30;;;31.30;44.60;;;;;;5065622;28;20855;-66
2022/08/01 10:30:50;;;;;;;9.63;3.70;;;31.40;49.40;;;;;;5071843;28;20055;-65
2022/08/01 10:33:22;;;;;;;4.50;3.78;;;31.60;51.30;;;;;;5074236;28;20632;-67
2022/08/01 10:36:09;;;;;;;4.97;3.55;;;31.60;49.70;;;;;;5055626;28;20802;-67
2022/08/01 10:38:36;;;;;;;4.55;4.10;;;31.40;50.50;;;;;;5058712;28;20113;-66
2022/08/01 10:41:05;;;;;;;5.57;3.90;;;31.30;50.70;;;;;;5077402;28;20052;-65
2022/08/01 10:43:35;;;;;;;4.35;3.78;;;31.40;51.20;;;;;;5052619;28;20656;-67
2022/08/01 10:46:04;;;;;;;3.88;3.10;;;31.40;49.60;;;;;;5057304;28;20637;-67
2022/08/01 10:48:41;;;;;;;3.95;3.58;;;31.40;49.50;;;;;;5055974;28;20048;-66
2022/08/01 10:51:09;;;;;;;2.72;2.53;;;31.50;50.90;;;;;;5055728;28;20331;-67
2022/08/01 10:53:51;;;;;;;3.17;2.88;;;31.60;50.40;;;;;;5056920;28;20051;-64
2022/08/01 10:56:21;;;;;;;5.72;3.78;;;31.60;49.70;;;;;;5054836;28;20678;-67
2022/08/01 10:59:02;;;;;;;4.03;3.15;;;31.60;50.60;;;;;;5055059;28;20045;-66
2022/08/01 11:01:37;;;;;;;4.63;3.65;;;31.50;51.00;;;;;;5056921;28;20060;-67
2022/08/01 11:04:13;;;;;;;3.60;3.28;;;31.70;50.50;;;;;;5057206;28;20061;-64
2022/08/01 11:06:54;;;;;;;3.80;3.40;;;31.70;50.30;;;;;;5056614;28;20048;-67
2022/08/01 11:09:26;;;;;;;3.42;3.10;;;31.90;50.30;;;;;;5058482;28;20053;-65
2022/08/01 11:12:12;;;;;;;2.83;2.60;;;32.00;49.00;;;;;;5057737;28;20097;-65
2022/08/01 11:14:59;;;;;;;4.95;3.28;;;32.10;49.30;;;;;;5055141;28;20142;-66
2022/08/01 11:17:35;;;;;;;2.90;2.70;;;32.30;48.50;;;;;;5055027;28;20047;-65
2022/08/01 11:20:25;;;;;;;4.68;2.75;;;32.30;48.00;;;;;;5057434;28;20058;-64
2022/08/01 11:23:01;;;;;;;6.70;2.40;;;32.40;47.00;;;;;;5056392;28;20048;-66
2022/08/01 11:25:35;;;;;;;;;;;32.40;45.20;;;;;;5058086;28;20864;-65
2022/08/01 11:28:24;;;;;;;3.10;2.20;;;32.30;43.40;;;;;;5061447;28;19927;-66
2022/08/01 11:31:06;;;;;;;3.33;2.25;;;32.10;44.20;;;;;;5075312;28;20052;-66
2022/08/01 11:33:47;;;;;;;3.28;2.03;;;31.70;43.80;;;;;;5076684;28;20043;-68
2022/08/01 11:36:17;;;;;;;4.53;2.10;;;31.50;44.40;;;;;;5076741;28;20078;-67
2022/08/01 11:39:11;;;;;;;3.10;1.85;;;31.50;45.10;;;;;;5077190;28;20036;-66
2022/08/01 11:41:41;;;;;;;2.35;1.75;;;31.50;44.80;;;;;;5058042;28;20748;-66
2022/08/01 11:44:09;;;;;;;2.15;1.88;;;31.50;44.10;;;;;;5039456;28;20063;-66
2022/08/01 11:47:11;;;;;;;2.10;1.90;;;31.60;46.00;;;;;;5056090;28;20068;-66
2022/08/01 11:49:47;;;;;;;1.60;1.50;;;31.70;44.30;;;;;;5044707;28;20155;-66
2022/08/01 11:52:30;;;;;;;3.67;2.10;;;31.70;44.20;;;;;;5054666;28;20393;-65
2022/08/01 11:55:05;;;;;;;2.25;2.00;;;31.70;44.50;;;;;;5056167;28;20040;-66
2022/08/01 11:57:37;;;;;;;7.13;2.35;;;31.50;46.70;;;;;;5062439;28;20047;-65
2022/08/01 12:00:25;;;;;;;3.67;2.10;;;31.50;47.70;;;;;;5058452;28;20074;-66
2022/08/01 12:03:07;;;;;;;4.50;1.95;;;31.50;47.00;;;;;;5075542;28;20055;-64
2022/08/01 12:05:36;;;;;;;3.10;2.15;;;31.60;46.10;;;;;;5072250;28;20051;-67
2022/08/01 12:08:09;;;;;;;7.03;2.80;;;31.70;46.10;;;;;;5055998;28;20056;-64
2022/08/01 12:10:36;;;;;;;2.22;2.00;;;32.00;47.40;;;;;;5068805;28;20048;-65
2022/08/01 12:13:13;;;;;;;1.55;1.45;;;32.20;45.70;;;;;;5054424;28;20044;-66
2022/08/01 12:15:40;;;;;;;1.90;1.70;;;32.30;43.90;;;;;;5038318;28;20072;-64
2022/08/01 12:18:07;;;;;;;2.28;1.80;;;32.30;43.80;;;;;;5055566;28;20060;-65
2022/08/01 12:20:37;;;;;;;2.25;2.05;;;32.30;40.30;;;;;;5055543;28;20326;-66
2022/08/01 12:23:20;;;;;;;2.83;1.80;;;32.30;40.70;;;;;;5055913;28;20044;-66
2022/08/01 12:25:51;;;;;;;1.60;1.50;;;32.40;41.70;;;;;;5055311;28;20055;-66
2022/08/01 12:28:18;;;;;;;4.22;1.50;;;32.50;43.00;;;;;;5055808;28;20118;-64
2022/08/01 12:30:48;;;;;;;5.13;1.65;;;32.60;41.10;;;;;;5069068;28;20043;-64
2022/08/01 12:33:18;;;;;;;1.40;1.30;;;32.50;40.30;;;;;;5075382;28;20055;-65
2022/08/01 12:35:46;;;;;;;5.68;1.30;;;32.60;40.20;;;;;;5074206;28;20135;-65
2022/08/01 12:38:32;;;;;;;5.65;1.52;;;32.60;40.50;;;;;;5076270;28;20656;-64
2022/08/01 12:41:00;;;;;;;1.25;1.17;;;32.60;39.40;;;;;;5074182;28;20810;-66
2022/08/01 12:43:31;;;;;;;1.30;1.20;;;32.50;40.40;;;;;;5073558;28;20043;-64
2022/08/01 12:46:00;;;;;;;4.47;1.85;;;32.20;39.20;;;;;;5057841;28;20142;-65
2022/08/01 12:48:27;;;;;;;2.70;1.10;;;32.20;40.90;;;;;;5074935;28;20044;-65
2022/08/01 12:50:57;;;;;;;1.20;1.10;;;32.30;42.70;;;;;;5075371;28;20724;-63
2022/08/01 12:53:25;;;;;;;3.53;1.08;;;32.40;40.20;;;;;;5073307;28;20047;-65
2022/08/01 12:56:07;;;;;;;1.10;1.00;;;32.60;41.40;;;;;;5075354;28;20138;-64
2022/08/01 12:58:34;;;;;;;2.45;1.40;;;32.80;39.00;;;;;;5073896;28;20774;-63
2022/08/01 13:01:06;;;;;;;8.93;1.60;;;32.80;36.40;;;;;;5074628;28;20040;-65
2022/08/01 13:03:33;;;;;;;4.63;1.20;;;32.60;36.50;;;;;;5075202;28;20269;-65
2022/08/01 13:06:01;;;;;;;1.00;1.00;;;32.60;36.10;;;;;;5057836;28;20109;-66
2022/08/01 13:08:34;;;;;;;2.03;1.27;;;32.60;38.00;;;;;;5073407;28;20385;-65
2022/08/01 13:11:04;;;;;;;1.67;1.42;;;32.80;36.70;;;;;;5058347;28;20037;-64